sensor_id;sensor_type;location;lat;lon;timestamp;temperature;humidity
13850;DHT22;6995;52.618;13.488;2023-09-19T00:01:08;18.60;1.00
13850;DHT22;6995;52.618;13.488;2023-09-19T00:03:34;18.70;1.00
13850;DHT22;6995;52.618;13.488;2023-09-19T00:06:03;18.60;1.00
13850;DHT22;6995;52.618;13.488;2023-09-19T00:08:28;18.60;1.00
13850;DHT22;6995;52.618;13.488;2023-09-19T00:10:54;18.60;1.00
13850;DHT22;6995;52.618;13.488;2023-09-19T00:13:20;18.60;1.00
13850;DHT22;6995;52.618;13.488;2023-09-19T00:15:47;18.50;1.00
13850;DHT22;6995;52.618;13.488;2023-09-19T00:18:18;18.50;1.00
13850;DHT22;6995;52.618;13.488;2023-09-19T00:20:46;18.50;1.00
13850;DHT22;6995;52.618;13.488;2023-09-19T00:23:16;18.40;1.00
13850;DHT22;6995;52.618;13.488;2023-09-19T00:25:42;18.40;1.00
13850;DHT22;6995;52.618;13.488;2023-09-19T00:28:08;18.40;1.00
13850;DHT22;6995;52.618;13.488;2023-09-19T00:30:34;18.40;1.00
13850;DHT22;6995;52.618;13.488;2023-09-19T00:33:00;18.30;1.00
13850;DHT22;6995;52.618;13.488;2023-09-19T00:35:27;18.30;1.00
13850;DHT22;6995;52.618;13.488;2023-09-19T00:37:53;18.20;1.00
13850;DHT22;6995;52.618;13.488;2023-09-19T00:40:19;18.20;1.00
13850;DHT22;6995;52.618;13.488;2023-09-19T00:42:46;18.20;1.00
13850;DHT22;6995;52.618;13.488;2023-09-19T00:45:13;18.20;1.00
13850;DHT22;6995;52.618;13.488;2023-09-19T00:47:40;18.20;1.00
13850;DHT22;6995;52.618;13.488;2023-09-19T00:50:08;18.10;1.00
13850;DHT22;6995;52.618;13.488;2023-09-19T00:52:35;18.10;1.00
13850;DHT22;6995;52.618;13.488;2023-09-19T00:55:05;18.10;1.00
13850;DHT22;6995;52.618;13.488;2023-09-19T00:57:33;18.10;1.00
13850;DHT22;6995;52.618;13.488;2023-09-19T00:59:59;18.10;1.00
13850;DHT22;6995;52.618;13.488;2023-09-19T01:02:26;18.10;1.00
13850;DHT22;6995;52.618;13.488;2023-09-19T01:04:55;18.00;1.00
13850;DHT22;6995;52.618;13.488;2023-09-19T01:07:21;18.00;1.00
13850;DHT22;6995;52.618;13.488;2023-09-19T01:09:48;18.00;1.00
13850;DHT22;6995;52.618;13.488;2023-09-19T01:12:24;18.00;1.00
13850;DHT22;6995;52.618;13.488;2023-09-19T01:14:59;18.00;1.00
13850;DHT22;6995;52.618;13.488;2023-09-19T01:20:41;17.90;1.00
13850;DHT22;6995;52.618;13.488;2023-09-19T01:23:37;18.00;1.00
13850;DHT22;6995;52.618;13.488;2023-09-19T01:31:40;18.00;1.00
13850;DHT22;6995;52.618;13.488;2023-09-19T01:34:07;18.00;1.00
13850;DHT22;6995;52.618;13.488;2023-09-19T01:36:37;18.10;1.00
13850;DHT22;6995;52.618;13.488;2023-09-19T01:39:09;18.10;1.00
13850;DHT22;6995;52.618;13.488;2023-09-19T01:44:17;18.20;1.00
13850;DHT22;6995;52.618;13.488;2023-09-19T01:46:44;18.30;1.00
13850;DHT22;6995;52.618;13.488;2023-09-19T01:49:22;18.30;1.00
13850;DHT22;6995;52.618;13.488;2023-09-19T01:52:05;18.30;1.00
13850;DHT22;6995;52.618;13.488;2023-09-19T01:54:41;18.40;1.00
13850;DHT22;6995;52.618;13.488;2023-09-19T01:57:28;18.50;1.00
13850;DHT22;6995;52.618;13.488;2023-09-19T02:00:04;18.40;1.00
13850;DHT22;6995;52.618;13.488;2023-09-19T02:02:37;18.40;1.00
13850;DHT22;6995;52.618;13.488;2023-09-19T02:05:04;18.40;1.00
13850;DHT22;6995;52.618;13.488;2023-09-19T02:07:31;18.30;1.00
13850;DHT22;6995;52.618;13.488;2023-09-19T02:10:01;18.20;1.00
13850;DHT22;6995;52.618;13.488;2023-09-19T02:12:27;18.20;1.00
13850;DHT22;6995;52.618;13.488;2023-09-19T02:14:53;18.20;1.00
13850;DHT22;6995;52.618;13.488;2023-09-19T02:17:18;18.20;1.00
13850;DHT22;6995;52.618;13.488;2023-09-19T02:19:44;18.10;1.00
13850;DHT22;6995;52.618;13.488;2023-09-19T02:22:10;18.10;1.00
13850;DHT22;6995;52.618;13.488;2023-09-19T02:24:37;18.10;1.00
13850;DHT22;6995;52.618;13.488;2023-09-19T02:27:04;18.10;1.00
13850;DHT22;6995;52.618;13.488;2023-09-19T02:29:30;18.10;1.00
13850;DHT22;6995;52.618;13.488;2023-09-19T02:31:56;18.10;1.00
13850;DHT22;6995;52.618;13.488;2023-09-19T02:34:22;18.10;1.00
13850;DHT22;6995;52.618;13.488;2023-09-19T02:36:48;18.00;1.00
13850;DHT22;6995;52.618;13.488;2023-09-19T02:39:14;18.00;1.00
13850;DHT22;6995;52.618;13.488;2023-09-19T02:41:39;17.90;1.00
13850;DHT22;6995;52.618;13.488;2023-09-19T02:44:07;17.90;1.00
13850;DHT22;6995;52.618;13.488;2023-09-19T02:46:34;17.90;1.00
13850;DHT22;6995;52.618;13.488;2023-09-19T02:49:02;17.90;1.00
13850;DHT22;6995;52.618;13.488;2023-09-19T02:51:30;17.80;1.00
13850;DHT22;6995;52.618;13.488;2023-09-19T02:53:56;17.80;1.00
13850;DHT22;6995;52.618;13.488;2023-09-19T02:56:22;17.80;1.00
13850;DHT22;6995;52.618;13.488;2023-09-19T02:58:48;17.80;1.00
13850;DHT22;6995;52.618;13.488;2023-09-19T03:01:14;17.80;1.00
13850;DHT22;6995;52.618;13.488;2023-09-19T03:03:40;17.80;1.00
13850;DHT22;6995;52.618;13.488;2023-09-19T03:06:06;17.70;1.00
13850;DHT22;6995;52.618;13.488;2023-09-19T03:08:35;17.70;1.00
13850;DHT22;6995;52.618;13.488;2023-09-19T03:11:03;17.70;1.00
13850;DHT22;6995;52.618;13.488;2023-09-19T03:13:31;17.70;1.00
13850;DHT22;6995;52.618;13.488;2023-09-19T03:15:57;17.60;1.00
13850;DHT22;6995;52.618;13.488;2023-09-19T03:18:27;17.70;1.00
13850;DHT22;6995;52.618;13.488;2023-09-19T03:20:54;17.70;1.00
13850;DHT22;6995;52.618;13.488;2023-09-19T03:23:20;17.70;1.00
13850;DHT22;6995;52.618;13.488;2023-09-19T03:25:46;17.70;1.00
13850;DHT22;6995;52.618;13.488;2023-09-19T03:28:13;17.70;1.00
13850;DHT22;6995;52.618;13.488;2023-09-19T03:30:40;17.70;1.00
13850;DHT22;6995;52.618;13.488;2023-09-19T03:33:06;17.70;1.00
13850;DHT22;6995;52.618;13.488;2023-09-19T03:35:32;17.70;1.00
13850;DHT22;6995;52.618;13.488;2023-09-19T03:37:58;17.70;1.00
13850;DHT22;6995;52.618;13.488;2023-09-19T03:40:23;17.70;1.00
13850;DHT22;6995;52.618;13.488;2023-09-19T03:42:50;17.70;1.00
13850;DHT22;6995;52.618;13.488;2023-09-19T03:45:16;17.70;1.00
13850;DHT22;6995;52.618;13.488;2023-09-19T03:47:44;17.70;1.00
13850;DHT22;6995;52.618;13.488;2023-09-19T03:50:12;17.70;99.90
13850;DHT22;6995;52.618;13.488;2023-09-19T03:52:40;17.70;99.90
13850;DHT22;6995;52.618;13.488;2023-09-19T03:55:06;17.70;99.90
13850;DHT22;6995;52.618;13.488;2023-09-19T03:57:32;17.70;99.90
13850;DHT22;6995;52.618;13.488;2023-09-19T03:59:58;17.70;99.90
13850;DHT22;6995;52.618;13.488;2023-09-19T04:02:23;17.70;99.90
13850;DHT22;6995;52.618;13.488;2023-09-19T04:04:50;17.60;99.90
13850;DHT22;6995;52.618;13.488;2023-09-19T04:07:16;17.60;99.90
13850;DHT22;6995;52.618;13.488;2023-09-19T04:09:42;17.60;99.90
13850;DHT22;6995;52.618;13.488;2023-09-19T04:12:08;17.50;99.90
13850;DHT22;6995;52.618;13.488;2023-09-19T04:14:36;17.50;99.90
13850;DHT22;6995;52.618;13.488;2023-09-19T04:17:02;17.50;99.90
13850;DHT22;6995;52.618;13.488;2023-09-19T04:19:28;17.50;99.90
13850;DHT22;6995;52.618;13.488;2023-09-19T04:21:54;17.50;99.90
13850;DHT22;6995;52.618;13.488;2023-09-19T04:24:19;17.50;99.90
13850;DHT22;6995;52.618;13.488;2023-09-19T04:26:45;17.40;99.90
13850;DHT22;6995;52.618;13.488;2023-09-19T04:29:11;17.40;99.90
13850;DHT22;6995;52.618;13.488;2023-09-19T04:31:40;17.40;99.90
13850;DHT22;6995;52.618;13.488;2023-09-19T04:34:06;17.30;99.90
13850;DHT22;6995;52.618;13.488;2023-09-19T04:36:31;17.20;99.90
13850;DHT22;6995;52.618;13.488;2023-09-19T04:38:57;17.20;99.90
13850;DHT22;6995;52.618;13.488;2023-09-19T04:41:23;17.20;99.90
13850;DHT22;6995;52.618;13.488;2023-09-19T04:43:49;17.20;99.90
13850;DHT22;6995;52.618;13.488;2023-09-19T04:46:16;17.10;99.90
13850;DHT22;6995;52.618;13.488;2023-09-19T04:48:43;17.10;99.90
13850;DHT22;6995;52.618;13.488;2023-09-19T04:51:09;17.10;99.90
13850;DHT22;6995;52.618;13.488;2023-09-19T04:53:36;17.10;99.90
13850;DHT22;6995;52.618;13.488;2023-09-19T04:56:01;17.00;99.90
13850;DHT22;6995;52.618;13.488;2023-09-19T04:58:29;17.00;99.90
13850;DHT22;6995;52.618;13.488;2023-09-19T05:00:54;17.00;99.90
13850;DHT22;6995;52.618;13.488;2023-09-19T05:03:20;17.10;99.90
13850;DHT22;6995;52.618;13.488;2023-09-19T05:05:46;17.00;99.90
13850;DHT22;6995;52.618;13.488;2023-09-19T05:08:12;17.00;99.90
13850;DHT22;6995;52.618;13.488;2023-09-19T05:10:40;17.00;99.90
13850;DHT22;6995;52.618;13.488;2023-09-19T05:13:06;17.00;99.90
13850;DHT22;6995;52.618;13.488;2023-09-19T05:15:35;17.00;99.90
13850;DHT22;6995;52.618;13.488;2023-09-19T05:18:01;17.00;99.90
13850;DHT22;6995;52.618;13.488;2023-09-19T05:20:27;17.00;99.90
13850;DHT22;6995;52.618;13.488;2023-09-19T05:23:07;17.00;99.90
13850;DHT22;6995;52.618;13.488;2023-09-19T05:25:39;17.00;99.90
13850;DHT22;6995;52.618;13.488;2023-09-19T05:28:06;17.00;99.90
13850;DHT22;6995;52.618;13.488;2023-09-19T05:30:33;17.00;99.90
13850;DHT22;6995;52.618;13.488;2023-09-19T05:32:59;17.00;99.90
13850;DHT22;6995;52.618;13.488;2023-09-19T05:35:25;17.00;99.90
13850;DHT22;6995;52.618;13.488;2023-09-19T05:37:52;17.00;99.90
13850;DHT22;6995;52.618;13.488;2023-09-19T05:40:19;17.00;99.90
13850;DHT22;6995;52.618;13.488;2023-09-19T05:42:45;16.90;99.90
13850;DHT22;6995;52.618;13.488;2023-09-19T05:45:11;16.90;99.90
13850;DHT22;6995;52.618;13.488;2023-09-19T05:47:44;16.90;99.90
13850;DHT22;6995;52.618;13.488;2023-09-19T05:50:11;16.90;99.90
13850;DHT22;6995;52.618;13.488;2023-09-19T05:52:37;16.90;99.90
13850;DHT22;6995;52.618;13.488;2023-09-19T05:55:04;17.00;99.90
13850;DHT22;6995;52.618;13.488;2023-09-19T05:57:32;17.00;99.90
13850;DHT22;6995;52.618;13.488;2023-09-19T05:59:58;17.00;99.90
13850;DHT22;6995;52.618;13.488;2023-09-19T06:02:23;17.00;99.90
13850;DHT22;6995;52.618;13.488;2023-09-19T06:04:52;17.00;99.90
13850;DHT22;6995;52.618;13.488;2023-09-19T06:07:18;17.10;99.90
13850;DHT22;6995;52.618;13.488;2023-09-19T06:09:44;17.00;99.90
13850;DHT22;6995;52.618;13.488;2023-09-19T06:12:09;17.10;99.90
13850;DHT22;6995;52.618;13.488;2023-09-19T06:14:35;17.10;99.90
13850;DHT22;6995;52.618;13.488;2023-09-19T06:17:00;17.20;99.90
13850;DHT22;6995;52.618;13.488;2023-09-19T06:19:26;17.30;99.90
13850;DHT22;6995;52.618;13.488;2023-09-19T06:21:52;17.30;99.90
13850;DHT22;6995;52.618;13.488;2023-09-19T06:24:19;17.30;99.90
13850;DHT22;6995;52.618;13.488;2023-09-19T06:26:45;17.40;99.90
13850;DHT22;6995;52.618;13.488;2023-09-19T06:29:10;17.50;99.90
13850;DHT22;6995;52.618;13.488;2023-09-19T06:31:39;17.60;99.90
13850;DHT22;6995;52.618;13.488;2023-09-19T06:34:04;17.60;99.90
13850;DHT22;6995;52.618;13.488;2023-09-19T06:36:30;17.70;99.90
13850;DHT22;6995;52.618;13.488;2023-09-19T06:38:55;17.80;99.90
13850;DHT22;6995;52.618;13.488;2023-09-19T06:41:21;18.00;99.90
13850;DHT22;6995;52.618;13.488;2023-09-19T06:43:50;18.00;99.90
13850;DHT22;6995;52.618;13.488;2023-09-19T06:46:18;18.20;99.90
13850;DHT22;6995;52.618;13.488;2023-09-19T06:48:44;18.30;99.90
13850;DHT22;6995;52.618;13.488;2023-09-19T06:51:13;18.40;99.90
13850;DHT22;6995;52.618;13.488;2023-09-19T06:53:41;18.60;99.90
13850;DHT22;6995;52.618;13.488;2023-09-19T06:56:06;18.60;99.90
13850;DHT22;6995;52.618;13.488;2023-09-19T06:58:32;18.50;99.90
13850;DHT22;6995;52.618;13.488;2023-09-19T07:00:58;18.60;99.90
13850;DHT22;6995;52.618;13.488;2023-09-19T07:03:23;18.80;99.90
13850;DHT22;6995;52.618;13.488;2023-09-19T07:05:52;19.10;99.90
13850;DHT22;6995;52.618;13.488;2023-09-19T07:08:18;19.20;99.90
13850;DHT22;6995;52.618;13.488;2023-09-19T07:10:45;19.60;99.90
13850;DHT22;6995;52.618;13.488;2023-09-19T07:13:14;19.60;99.90
13850;DHT22;6995;52.618;13.488;2023-09-19T07:15:43;19.80;99.90
13850;DHT22;6995;52.618;13.488;2023-09-19T07:18:17;19.70;99.90
13850;DHT22;6995;52.618;13.488;2023-09-19T07:20:44;19.50;99.90
13850;DHT22;6995;52.618;13.488;2023-09-19T07:23:18;19.50;99.90
13850;DHT22;6995;52.618;13.488;2023-09-19T07:25:44;19.60;99.90
13850;DHT22;6995;52.618;13.488;2023-09-19T07:28:10;19.30;99.90
13850;DHT22;6995;52.618;13.488;2023-09-19T07:30:36;19.20;99.90
13850;DHT22;6995;52.618;13.488;2023-09-19T07:33:03;19.10;99.90
13850;DHT22;6995;52.618;13.488;2023-09-19T07:35:30;19.20;99.90
13850;DHT22;6995;52.618;13.488;2023-09-19T07:37:56;19.20;99.90
13850;DHT22;6995;52.618;13.488;2023-09-19T07:40:23;19.10;99.90
13850;DHT22;6995;52.618;13.488;2023-09-19T07:42:55;19.00;99.90
13850;DHT22;6995;52.618;13.488;2023-09-19T07:45:21;19.10;99.90
13850;DHT22;6995;52.618;13.488;2023-09-19T07:47:48;19.10;99.90
13850;DHT22;6995;52.618;13.488;2023-09-19T07:50:15;19.00;99.90
13850;DHT22;6995;52.618;13.488;2023-09-19T07:52:41;18.90;99.90
13850;DHT22;6995;52.618;13.488;2023-09-19T07:55:08;19.00;99.90
13850;DHT22;6995;52.618;13.488;2023-09-19T07:57:35;19.00;99.90
13850;DHT22;6995;52.618;13.488;2023-09-19T08:00:01;19.00;99.90
13850;DHT22;6995;52.618;13.488;2023-09-19T08:02:33;18.90;98.10
13850;DHT22;6995;52.618;13.488;2023-09-19T08:04:59;19.20;91.50
13850;DHT22;6995;52.618;13.488;2023-09-19T08:07:26;19.10;82.30
13850;DHT22;6995;52.618;13.488;2023-09-19T08:09:51;19.30;82.90
13850;DHT22;6995;52.618;13.488;2023-09-19T08:12:17;19.20;64.40
13850;DHT22;6995;52.618;13.488;2023-09-19T08:14:43;19.20;53.90
13850;DHT22;6995;52.618;13.488;2023-09-19T08:17:09;19.20;49.40
13850;DHT22;6995;52.618;13.488;2023-09-19T08:19:34;19.00;41.70
13850;DHT22;6995;52.618;13.488;2023-09-19T08:22:01;19.00;35.30
13850;DHT22;6995;52.618;13.488;2023-09-19T08:24:29;18.90;63.40
13850;DHT22;6995;52.618;13.488;2023-09-19T08:26:56;18.80;38.80
13850;DHT22;6995;52.618;13.488;2023-09-19T08:29:25;18.80;38.40
13850;DHT22;6995;52.618;13.488;2023-09-19T08:31:59;18.80;36.70
13850;DHT22;6995;52.618;13.488;2023-09-19T08:34:25;18.70;35.10
13850;DHT22;6995;52.618;13.488;2023-09-19T08:36:51;18.70;39.90
13850;DHT22;6995;52.618;13.488;2023-09-19T08:39:18;18.60;38.20
13850;DHT22;6995;52.618;13.488;2023-09-19T08:41:44;18.50;35.90
13850;DHT22;6995;52.618;13.488;2023-09-19T08:44:10;18.60;44.70
13850;DHT22;6995;52.618;13.488;2023-09-19T08:46:37;18.50;44.50
13850;DHT22;6995;52.618;13.488;2023-09-19T08:49:36;18.50;52.30
13850;DHT22;6995;52.618;13.488;2023-09-19T08:52:28;18.70;52.60
13850;DHT22;6995;52.618;13.488;2023-09-19T08:54:59;18.70;50.00
13850;DHT22;6995;52.618;13.488;2023-09-19T08:57:29;18.60;52.60
13850;DHT22;6995;52.618;13.488;2023-09-19T08:59:59;18.50;48.30
13850;DHT22;6995;52.618;13.488;2023-09-19T09:02:26;18.60;40.40
13850;DHT22;6995;52.618;13.488;2023-09-19T09:04:54;18.80;44.70
13850;DHT22;6995;52.618;13.488;2023-09-19T09:07:20;19.10;45.40
13850;DHT22;6995;52.618;13.488;2023-09-19T09:09:47;19.10;39.30
13850;DHT22;6995;52.618;13.488;2023-09-19T09:12:14;18.70;29.80
13850;DHT22;6995;52.618;13.488;2023-09-19T09:14:47;18.80;33.10
13850;DHT22;6995;52.618;13.488;2023-09-19T09:17:15;18.90;32.00
13850;DHT22;6995;52.618;13.488;2023-09-19T09:19:41;19.20;25.50
13850;DHT22;6995;52.618;13.488;2023-09-19T09:22:09;19.10;20.00
13850;DHT22;6995;52.618;13.488;2023-09-19T09:24:35;19.10;14.20
13850;DHT22;6995;52.618;13.488;2023-09-19T09:27:06;19.40;14.40
13850;DHT22;6995;52.618;13.488;2023-09-19T09:29:47;19.60;11.70
13850;DHT22;6995;52.618;13.488;2023-09-19T09:32:31;20.20;13.00
13850;DHT22;6995;52.618;13.488;2023-09-19T09:35:06;20.20;1.60
13850;DHT22;6995;52.618;13.488;2023-09-19T09:37:35;19.90;3.20
13850;DHT22;6995;52.618;13.488;2023-09-19T09:40:04;19.80;4.00
13850;DHT22;6995;52.618;13.488;2023-09-19T09:42:42;20.00;4.50
13850;DHT22;6995;52.618;13.488;2023-09-19T09:45:22;20.00;1.10
13850;DHT22;6995;52.618;13.488;2023-09-19T09:48:03;20.00;1.00
13850;DHT22;6995;52.618;13.488;2023-09-19T09:50:31;20.30;1.00
13850;DHT22;6995;52.618;13.488;2023-09-19T09:53:24;20.70;1.00
13850;DHT22;6995;52.618;13.488;2023-09-19T09:56:10;20.60;1.00
13850;DHT22;6995;52.618;13.488;2023-09-19T09:58:51;20.70;1.00
13850;DHT22;6995;52.618;13.488;2023-09-19T10:01:20;21.00;1.00
13850;DHT22;6995;52.618;13.488;2023-09-19T10:03:57;20.60;1.00
13850;DHT22;6995;52.618;13.488;2023-09-19T10:06:23;20.50;1.00
13850;DHT22;6995;52.618;13.488;2023-09-19T10:09:09;20.20;1.00
13850;DHT22;6995;52.618;13.488;2023-09-19T10:12:05;20.20;1.00
13850;DHT22;6995;52.618;13.488;2023-09-19T10:14:37;20.50;1.00
13850;DHT22;6995;52.618;13.488;2023-09-19T10:17:05;21.00;1.00
13850;DHT22;6995;52.618;13.488;2023-09-19T10:19:44;21.20;1.00
13850;DHT22;6995;52.618;13.488;2023-09-19T10:22:13;21.20;1.00
13850;DHT22;6995;52.618;13.488;2023-09-19T10:24:40;20.80;1.00
13850;DHT22;6995;52.618;13.488;2023-09-19T10:27:07;21.00;1.00
13850;DHT22;6995;52.618;13.488;2023-09-19T10:29:39;20.70;1.00
13850;DHT22;6995;52.618;13.488;2023-09-19T10:32:06;20.70;1.00
13850;DHT22;6995;52.618;13.488;2023-09-19T10:34:35;20.80;1.00
13850;DHT22;6995;52.618;13.488;2023-09-19T10:37:02;20.80;1.00
13850;DHT22;6995;52.618;13.488;2023-09-19T10:39:32;21.00;1.00
13850;DHT22;6995;52.618;13.488;2023-09-19T10:42:02;21.10;1.00
13850;DHT22;6995;52.618;13.488;2023-09-19T10:44:32;20.80;1.00
13850;DHT22;6995;52.618;13.488;2023-09-19T10:46:58;20.70;1.00
13850;DHT22;6995;52.618;13.488;2023-09-19T10:49:25;20.40;1.00
13850;DHT22;6995;52.618;13.488;2023-09-19T10:51:55;20.50;1.00
13850;DHT22;6995;52.618;13.488;2023-09-19T10:54:26;21.00;1.00
13850;DHT22;6995;52.618;13.488;2023-09-19T10:56:54;20.90;1.00
13850;DHT22;6995;52.618;13.488;2023-09-19T10:59:21;20.90;1.00
13850;DHT22;6995;52.618;13.488;2023-09-19T11:04:24;20.90;1.00
13850;DHT22;6995;52.618;13.488;2023-09-19T11:07:12;21.00;1.00
13850;DHT22;6995;52.618;13.488;2023-09-19T11:09:51;21.30;1.00
13850;DHT22;6995;52.618;13.488;2023-09-19T11:14:58;20.90;1.00
13850;DHT22;6995;52.618;13.488;2023-09-19T11:17:37;20.80;1.00
13850;DHT22;6995;52.618;13.488;2023-09-19T11:30:41;21.10;1.00
13850;DHT22;6995;52.618;13.488;2023-09-19T11:33:28;21.10;1.00
13850;DHT22;6995;52.618;13.488;2023-09-19T11:43:47;21.50;1.00
13850;DHT22;6995;52.618;13.488;2023-09-19T11:46:13;21.30;1.00
13850;DHT22;6995;52.618;13.488;2023-09-19T11:48:42;21.20;1.00
13850;DHT22;6995;52.618;13.488;2023-09-19T11:51:13;21.60;1.00
13850;DHT22;6995;52.618;13.488;2023-09-19T11:53:55;21.50;1.00
13850;DHT22;6995;52.618;13.488;2023-09-19T11:56:23;21.50;1.00
13850;DHT22;6995;52.618;13.488;2023-09-19T11:58:54;21.40;1.00
13850;DHT22;6995;52.618;13.488;2023-09-19T12:01:30;21.50;1.00
13850;DHT22;6995;52.618;13.488;2023-09-19T12:04:00;21.50;1.00
13850;DHT22;6995;52.618;13.488;2023-09-19T12:06:26;21.30;1.00
13850;DHT22;6995;52.618;13.488;2023-09-19T12:08:53;21.20;1.00
13850;DHT22;6995;52.618;13.488;2023-09-19T12:11:30;21.40;1.00
13850;DHT22;6995;52.618;13.488;2023-09-19T12:13:59;21.30;1.00
13850;DHT22;6995;52.618;13.488;2023-09-19T12:16:26;21.30;1.00
13850;DHT22;6995;52.618;13.488;2023-09-19T12:18:56;21.40;1.00
13850;DHT22;6995;52.618;13.488;2023-09-19T12:21:31;21.60;1.00
13850;DHT22;6995;52.618;13.488;2023-09-19T12:24:05;21.70;1.00
13850;DHT22;6995;52.618;13.488;2023-09-19T12:26:38;21.80;1.00
13850;DHT22;6995;52.618;13.488;2023-09-19T12:29:14;22.30;1.00
13850;DHT22;6995;52.618;13.488;2023-09-19T12:31:58;22.40;1.00
13850;DHT22;6995;52.618;13.488;2023-09-19T12:34:29;21.90;1.00
13850;DHT22;6995;52.618;13.488;2023-09-19T12:37:09;22.30;1.00
13850;DHT22;6995;52.618;13.488;2023-09-19T12:39:45;22.50;1.00
13850;DHT22;6995;52.618;13.488;2023-09-19T12:42:22;22.70;1.00
13850;DHT22;6995;52.618;13.488;2023-09-19T12:44:50;23.40;1.00
13850;DHT22;6995;52.618;13.488;2023-09-19T12:47:23;23.40;1.00
13850;DHT22;6995;52.618;13.488;2023-09-19T12:50:11;23.30;1.00
13850;DHT22;6995;52.618;13.488;2023-09-19T12:52:49;23.00;1.00
13850;DHT22;6995;52.618;13.488;2023-09-19T12:55:28;22.90;1.00
13850;DHT22;6995;52.618;13.488;2023-09-19T12:58:07;23.40;1.00
13850;DHT22;6995;52.618;13.488;2023-09-19T13:00:42;22.90;1.00
13850;DHT22;6995;52.618;13.488;2023-09-19T13:05:59;22.70;1.00
13850;DHT22;6995;52.618;13.488;2023-09-19T13:08:37;22.60;1.00
13850;DHT22;6995;52.618;13.488;2023-09-19T13:11:12;22.80;1.00
13850;DHT22;6995;52.618;13.488;2023-09-19T13:13:49;22.40;1.00
13850;DHT22;6995;52.618;13.488;2023-09-19T13:16:20;22.60;1.00
13850;DHT22;6995;52.618;13.488;2023-09-19T13:18:53;22.20;1.00
13850;DHT22;6995;52.618;13.488;2023-09-19T13:21:30;22.00;1.00
13850;DHT22;6995;52.618;13.488;2023-09-19T13:24:19;22.10;1.00
13850;DHT22;6995;52.618;13.488;2023-09-19T13:26:45;21.60;1.00
13850;DHT22;6995;52.618;13.488;2023-09-19T13:29:11;21.70;1.00
13850;DHT22;6995;52.618;13.488;2023-09-19T13:31:37;21.90;1.00
13850;DHT22;6995;52.618;13.488;2023-09-19T13:34:07;21.80;1.00
13850;DHT22;6995;52.618;13.488;2023-09-19T13:36:33;21.70;1.00
13850;DHT22;6995;52.618;13.488;2023-09-19T13:38:59;21.60;1.00
13850;DHT22;6995;52.618;13.488;2023-09-19T13:41:25;21.70;1.00
13850;DHT22;6995;52.618;13.488;2023-09-19T13:43:51;21.70;1.00
13850;DHT22;6995;52.618;13.488;2023-09-19T13:46:17;21.70;1.00
13850;DHT22;6995;52.618;13.488;2023-09-19T13:48:50;21.50;1.00
13850;DHT22;6995;52.618;13.488;2023-09-19T13:51:17;21.60;1.00
13850;DHT22;6995;52.618;13.488;2023-09-19T13:53:44;21.50;1.00
13850;DHT22;6995;52.618;13.488;2023-09-19T13:56:10;21.40;1.00
13850;DHT22;6995;52.618;13.488;2023-09-19T13:58:36;21.60;1.00
13850;DHT22;6995;52.618;13.488;2023-09-19T14:01:02;21.70;1.00
13850;DHT22;6995;52.618;13.488;2023-09-19T14:03:28;21.60;1.00
13850;DHT22;6995;52.618;13.488;2023-09-19T14:05:54;21.60;1.00
13850;DHT22;6995;52.618;13.488;2023-09-19T14:08:19;21.60;1.00
13850;DHT22;6995;52.618;13.488;2023-09-19T14:10:45;21.30;1.00
13850;DHT22;6995;52.618;13.488;2023-09-19T14:13:11;21.60;1.00
13850;DHT22;6995;52.618;13.488;2023-09-19T14:15:38;21.50;1.00
13850;DHT22;6995;52.618;13.488;2023-09-19T14:18:04;21.40;1.00
13850;DHT22;6995;52.618;13.488;2023-09-19T14:20:30;21.90;1.00
13850;DHT22;6995;52.618;13.488;2023-09-19T14:22:57;21.90;1.00
13850;DHT22;6995;52.618;13.488;2023-09-19T14:25:24;22.10;1.00
13850;DHT22;6995;52.618;13.488;2023-09-19T14:27:50;22.20;1.00
13850;DHT22;6995;52.618;13.488;2023-09-19T14:30:17;21.80;1.00
13850;DHT22;6995;52.618;13.488;2023-09-19T14:32:43;21.80;1.00
13850;DHT22;6995;52.618;13.488;2023-09-19T14:35:08;21.90;1.00
13850;DHT22;6995;52.618;13.488;2023-09-19T14:37:39;21.70;1.00
13850;DHT22;6995;52.618;13.488;2023-09-19T14:40:05;21.50;1.00
13850;DHT22;6995;52.618;13.488;2023-09-19T14:42:35;21.70;1.00
13850;DHT22;6995;52.618;13.488;2023-09-19T14:45:02;21.70;1.00
13850;DHT22;6995;52.618;13.488;2023-09-19T14:47:28;21.90;1.00
13850;DHT22;6995;52.618;13.488;2023-09-19T14:49:53;21.90;1.00
13850;DHT22;6995;52.618;13.488;2023-09-19T14:52:19;21.90;1.00
13850;DHT22;6995;52.618;13.488;2023-09-19T14:54:45;21.70;1.00
13850;DHT22;6995;52.618;13.488;2023-09-19T14:57:10;21.60;1.00
13850;DHT22;6995;52.618;13.488;2023-09-19T14:59:36;21.40;1.00
13850;DHT22;6995;52.618;13.488;2023-09-19T15:02:05;21.50;1.00
13850;DHT22;6995;52.618;13.488;2023-09-19T15:04:31;21.40;1.00
13850;DHT22;6995;52.618;13.488;2023-09-19T15:06:56;21.50;1.00
13850;DHT22;6995;52.618;13.488;2023-09-19T15:09:23;21.60;1.00
13850;DHT22;6995;52.618;13.488;2023-09-19T15:11:52;21.50;1.00
13850;DHT22;6995;52.618;13.488;2023-09-19T15:14:18;21.60;1.00
13850;DHT22;6995;52.618;13.488;2023-09-19T15:16:43;21.70;1.00
13850;DHT22;6995;52.618;13.488;2023-09-19T15:19:09;21.60;1.00
13850;DHT22;6995;52.618;13.488;2023-09-19T15:21:36;21.70;1.00
13850;DHT22;6995;52.618;13.488;2023-09-19T15:24:03;21.70;1.00
13850;DHT22;6995;52.618;13.488;2023-09-19T15:26:30;21.50;1.00
13850;DHT22;6995;52.618;13.488;2023-09-19T15:28:55;21.60;1.00
13850;DHT22;6995;52.618;13.488;2023-09-19T15:31:21;21.60;1.00
13850;DHT22;6995;52.618;13.488;2023-09-19T15:33:47;21.50;1.00
13850;DHT22;6995;52.618;13.488;2023-09-19T15:36:14;21.30;1.00
13850;DHT22;6995;52.618;13.488;2023-09-19T15:41:23;21.00;1.00
13850;DHT22;6995;52.618;13.488;2023-09-19T15:43:49;21.00;1.00
13850;DHT22;6995;52.618;13.488;2023-09-19T15:46:15;21.10;1.00
13850;DHT22;6995;52.618;13.488;2023-09-19T15:48:41;21.00;1.00
13850;DHT22;6995;52.618;13.488;2023-09-19T15:51:07;21.10;1.00
13850;DHT22;6995;52.618;13.488;2023-09-19T15:56:10;20.90;1.00
13850;DHT22;6995;52.618;13.488;2023-09-19T15:58:40;20.70;1.00
13850;DHT22;6995;52.618;13.488;2023-09-19T16:01:06;20.80;1.00
13850;DHT22;6995;52.618;13.488;2023-09-19T16:03:39;20.90;1.00
13850;DHT22;6995;52.618;13.488;2023-09-19T16:06:09;21.00;1.00
13850;DHT22;6995;52.618;13.488;2023-09-19T16:08:38;21.20;1.00
13850;DHT22;6995;52.618;13.488;2023-09-19T16:11:03;21.40;1.00
13850;DHT22;6995;52.618;13.488;2023-09-19T16:13:29;21.60;1.00
13850;DHT22;6995;52.618;13.488;2023-09-19T16:15:55;22.00;1.00
13850;DHT22;6995;52.618;13.488;2023-09-19T16:18:21;22.00;1.00
13850;DHT22;6995;52.618;13.488;2023-09-19T16:20:47;22.50;1.00
13850;DHT22;6995;52.618;13.488;2023-09-19T16:23:13;23.30;1.00
13850;DHT22;6995;52.618;13.488;2023-09-19T16:25:38;23.00;1.00
13850;DHT22;6995;52.618;13.488;2023-09-19T16:28:04;22.20;1.00
13850;DHT22;6995;52.618;13.488;2023-09-19T16:30:32;21.60;1.00
13850;DHT22;6995;52.618;13.488;2023-09-19T16:32:59;21.30;1.00